createdAt,value
2023-02-04T00:00:15.723Z,100659.94
2023-02-04T00:02:42.159Z,100658.03
2023-02-04T00:05:10.992Z,100670.63
2023-02-04T00:07:38.458Z,100672.69
2023-02-04T00:10:06.629Z,100680.53
2023-02-04T00:12:34.420Z,100686.78
2023-02-04T00:15:01.079Z,100691.38
2023-02-04T00:17:27.725Z,100689.03
2023-02-04T00:19:54.267Z,100693.25
2023-02-04T00:22:21.122Z,100711.56
2023-02-04T00:24:49.903Z,100706.25
2023-02-04T00:27:16.762Z,100718.06
2023-02-04T00:29:43.112Z,100703.69
2023-02-04T00:32:10.036Z,100704.63
2023-02-04T00:34:36.557Z,100704.63
2023-02-04T00:37:03.378Z,100706.06
2023-02-04T00:39:29.961Z,100710.03
2023-02-04T00:41:56.437Z,100705.63
2023-02-04T00:44:22.895Z,100707.38
2023-02-04T00:46:49.463Z,100700.75
2023-02-04T00:49:15.847Z,100709.53
2023-02-04T00:51:46.405Z,100716.06
2023-02-04T00:54:14.564Z,100717.28
2023-02-04T00:56:42.049Z,100723.47
2023-02-04T00:59:08.676Z,100721.75
2023-02-04T01:01:35.381Z,100729.16
2023-02-04T01:04:01.919Z,100731.56
2023-02-04T01:06:28.323Z,100726.91
2023-02-04T01:08:54.849Z,100735.00
2023-02-04T01:11:21.492Z,100736.91
2023-02-04T01:13:47.933Z,100732.25
2023-02-04T01:16:14.885Z,100744.97
2023-02-04T01:18:41.547Z,100753.94
2023-02-04T01:21:08.000Z,100749.53
2023-02-04T01:23:34.566Z,100742.38
2023-02-04T01:26:00.988Z,100744.38
2023-02-04T01:28:27.869Z,100746.72
2023-02-04T01:30:54.611Z,100753.41
2023-02-04T01:33:21.670Z,100754.59
2023-02-04T01:35:48.412Z,100755.03
2023-02-04T01:38:14.831Z,100761.03
2023-02-04T01:40:42.749Z,100766.16
2023-02-04T01:43:10.186Z,100785.50
2023-02-04T01:45:38.586Z,100785.81
2023-02-04T01:48:07.487Z,100793.81
2023-02-04T01:50:34.584Z,100793.06
2023-02-04T01:53:01.544Z,100788.34
2023-02-04T01:55:31.366Z,100794.59
2023-02-04T01:57:58.945Z,100799.84
2023-02-04T02:00:27.999Z,100793.66
2023-02-04T02:02:54.972Z,100779.88
2023-02-04T02:05:24.669Z,100789.59
2023-02-04T02:07:53.961Z,100791.00
2023-02-04T02:10:24.374Z,100796.03
2023-02-04T02:12:51.302Z,100800.19
2023-02-04T02:15:18.984Z,100793.28
2023-02-04T02:17:45.740Z,100792.59
2023-02-04T02:20:15.841Z,100808.59
2023-02-04T02:22:54.442Z,100804.22
2023-02-04T02:25:21.306Z,100801.56
2023-02-04T02:27:47.988Z,100803.25
2023-02-04T02:30:17.605Z,100807.13
2023-02-04T02:32:46.307Z,100806.38
2023-02-04T02:35:13.652Z,100805.47
2023-02-04T02:37:40.199Z,100811.19
2023-02-04T02:40:07.327Z,100819.19
2023-02-04T02:42:33.934Z,100814.97
2023-02-04T02:45:03.295Z,100821.38
2023-02-04T02:47:30.123Z,100821.22
2023-02-04T02:49:56.934Z,100826.78
2023-02-04T02:52:23.311Z,100819.06
2023-02-04T02:54:50.187Z,100830.44
2023-02-04T02:57:21.048Z,100837.47
2023-02-04T02:59:48.293Z,100836.06
2023-02-04T03:02:21.920Z,100835.06
2023-02-04T03:04:54.649Z,100827.97
2023-02-04T03:07:22.596Z,100834.44
2023-02-04T03:09:49.380Z,100829.94
2023-02-04T03:12:15.981Z,100842.34
2023-02-04T03:14:42.578Z,100833.72
2023-02-04T03:17:10.599Z,100837.25
2023-02-04T03:19:37.972Z,100848.91
2023-02-04T03:22:05.561Z,100846.03
2023-02-04T03:24:33.683Z,100859.75
2023-02-04T03:27:00.972Z,100859.88
2023-02-04T03:29:29.639Z,100849.09
2023-02-04T03:31:56.841Z,100852.03
2023-02-04T03:34:23.351Z,100851.88
2023-02-04T03:36:49.830Z,100849.09
2023-02-04T03:39:16.380Z,100852.81
2023-02-04T03:41:43.023Z,100859.25
2023-02-04T03:44:09.427Z,100867.25
2023-02-04T03:46:36.076Z,100871.53
2023-02-04T03:49:02.536Z,100875.25
2023-02-04T03:51:29.171Z,100883.38
2023-02-04T03:53:55.543Z,100876.31
2023-02-04T03:56:22.038Z,100877.97
2023-02-04T03:58:48.586Z,100877.13
2023-02-04T04:01:15.123Z,100887.78
2023-02-04T04:03:41.546Z,100884.78
2023-02-04T04:06:09.924Z,100877.63
2023-02-04T04:08:37.909Z,100869.75
2023-02-04T04:11:04.350Z,100875.88
2023-02-04T04:13:30.788Z,100876.31
2023-02-04T04:15:57.490Z,100874.69
2023-02-04T04:18:24.008Z,100885.41
2023-02-04T04:20:50.381Z,100882.13
2023-02-04T04:23:16.871Z,100879.94
2023-02-04T04:25:43.291Z,100889.91
2023-02-04T04:28:09.717Z,100887.31
2023-02-04T04:30:36.256Z,100885.28
2023-02-04T04:33:02.685Z,100889.19
2023-02-04T04:35:29.056Z,100891.78
2023-02-04T04:37:55.648Z,100887.44
2023-02-04T04:40:22.064Z,100898.09
2023-02-04T04:42:48.568Z,100897.31
2023-02-04T04:45:14.970Z,100898.25
2023-02-04T04:47:41.346Z,100904.22
2023-02-04T04:50:08.527Z,100898.75
2023-02-04T04:52:34.977Z,100891.59
2023-02-04T04:55:01.645Z,100904.06
2023-02-04T04:57:28.114Z,100912.22
2023-02-04T04:59:54.818Z,100928.34
2023-02-04T05:02:21.406Z,100943.47
2023-02-04T05:04:47.876Z,100938.94
2023-02-04T05:07:14.481Z,100947.09
2023-02-04T05:09:41.250Z,100949.03
2023-02-04T05:12:07.801Z,100960.81
2023-02-04T05:14:34.478Z,100953.25
2023-02-04T05:17:01.096Z,100948.53
2023-02-04T05:19:27.501Z,100960.19
2023-02-04T05:21:54.087Z,100954.00
2023-02-04T05:24:20.749Z,100954.56
2023-02-04T05:26:47.306Z,100953.28
2023-02-04T05:29:13.726Z,100945.38
2023-02-04T05:31:40.661Z,100943.63
2023-02-04T05:34:07.122Z,100950.47
2023-02-04T05:36:33.698Z,100946.94
2023-02-04T05:39:00.138Z,100943.56
2023-02-04T05:41:26.720Z,100953.44
2023-02-04T05:43:53.133Z,100951.88
2023-02-04T05:46:19.658Z,100959.06
2023-02-04T05:48:46.065Z,100952.00
2023-02-04T05:51:12.618Z,100957.34
2023-02-04T05:53:39.054Z,100962.66
2023-02-04T05:56:05.713Z,100973.19
2023-02-04T05:58:33.615Z,100979.16
2023-02-04T06:01:01.728Z,100981.66
2023-02-04T06:03:29.464Z,100981.66
2023-02-04T06:05:56.897Z,100986.25
2023-02-04T06:08:24.129Z,100988.00
2023-02-04T06:10:50.700Z,100981.25
2023-02-04T06:13:17.092Z,100982.16
2023-02-04T06:15:43.618Z,100992.75
2023-02-04T06:18:10.330Z,100987.56
2023-02-04T06:20:36.857Z,101001.19
2023-02-04T06:23:03.283Z,101008.03
2023-02-04T06:25:29.843Z,101004.56
2023-02-04T06:27:56.309Z,101007.59
2023-02-04T06:30:22.778Z,101015.63
2023-02-04T06:32:49.156Z,101013.78
2023-02-04T06:35:16.572Z,101015.63
2023-02-04T06:37:43.393Z,101015.75
2023-02-04T06:40:11.227Z,101033.38
2023-02-04T06:42:37.668Z,101039.06
2023-02-04T06:45:04.762Z,101042.44
2023-02-04T06:47:31.276Z,101034.66
2023-02-04T06:49:57.795Z,101034.47
2023-02-04T06:52:24.203Z,101038.09
2023-02-04T06:54:50.735Z,101038.81
2023-02-04T06:57:17.136Z,101048.63
2023-02-04T06:59:43.693Z,101048.34
2023-02-04T07:02:11.425Z,101057.28
2023-02-04T07:04:37.884Z,101067.94
2023-02-04T07:07:07.056Z,101063.81
2023-02-04T07:09:33.642Z,101062.88
2023-02-04T07:12:00.077Z,101067.34
2023-02-04T07:14:26.688Z,101069.16
2023-02-04T07:16:53.184Z,101072.16
2023-02-04T07:19:21.181Z,101076.06
2023-02-04T07:21:48.047Z,101082.19
2023-02-04T07:24:14.532Z,101077.50
2023-02-04T07:26:40.954Z,101079.69
2023-02-04T07:29:14.457Z,101069.94
2023-02-04T07:31:41.828Z,101082.41
2023-02-04T07:34:08.361Z,101074.84
2023-02-04T07:36:34.806Z,101082.34
2023-02-04T07:39:01.445Z,101084.06
2023-02-04T07:41:27.913Z,101084.19
2023-02-04T07:43:54.475Z,101077.94
2023-02-04T07:46:20.991Z,101088.47
2023-02-04T07:48:47.609Z,101082.91
2023-02-04T07:51:13.996Z,101089.13
2023-02-04T07:53:40.611Z,101090.03
2023-02-04T07:56:07.437Z,101098.03
2023-02-04T07:58:33.964Z,101101.22
2023-02-04T08:01:01.297Z,101106.41
2023-02-04T08:03:28.106Z,101106.59
2023-02-04T08:05:54.842Z,101110.00
2023-02-04T08:08:21.555Z,101109.88
2023-02-04T08:10:48.073Z,101119.31
2023-02-04T08:13:14.745Z,101122.81
2023-02-04T08:15:41.513Z,101115.66
2023-02-04T08:18:07.972Z,101123.41
2023-02-04T08:20:34.730Z,101128.75
2023-02-04T08:23:01.406Z,101124.72
2023-02-04T08:25:28.963Z,101123.78
2023-02-04T08:27:55.532Z,101130.59
2023-02-04T08:30:22.158Z,101126.06
2023-02-04T08:32:48.538Z,101129.22
2023-02-04T08:35:15.187Z,101122.16
2023-02-04T08:37:41.861Z,101113.38
2023-02-04T08:40:08.952Z,101124.03
2023-02-04T08:42:35.469Z,101128.94
2023-02-04T08:45:03.901Z,101130.25
2023-02-04T08:47:30.274Z,101136.31
2023-02-04T08:49:56.817Z,101130.53
2023-02-04T08:52:23.760Z,101136.84
2023-02-04T08:54:50.265Z,101137.28
2023-02-04T08:57:16.703Z,101135.47
2023-02-04T08:59:45.968Z,101152.44
2023-02-04T09:02:12.619Z,101153.28
2023-02-04T09:04:39.032Z,101150.28
2023-02-04T09:07:05.732Z,101158.75
2023-02-04T09:09:32.112Z,101157.06
2023-02-04T09:11:58.706Z,101162.78
2023-02-04T09:14:25.134Z,101161.59
2023-02-04T09:16:51.582Z,101151.97
2023-02-04T09:19:23.854Z,101162.44
2023-02-04T09:21:50.339Z,101165.91
2023-02-04T09:24:16.782Z,101162.44
2023-02-04T09:26:43.195Z,101168.63
2023-02-04T09:29:09.704Z,101166.41
2023-02-04T09:31:36.147Z,101171.16
2023-02-04T09:34:02.664Z,101172.97
2023-02-04T09:36:30.584Z,101174.19
2023-02-04T09:38:56.999Z,101179.78
2023-02-04T09:41:23.592Z,101181.91
2023-02-04T09:43:50.628Z,101181.56
2023-02-04T09:46:24.395Z,101186.44
2023-02-04T09:48:51.513Z,101196.56
2023-02-04T09:51:21.995Z,101193.44
2023-02-04T09:53:49.621Z,101187.63
2023-02-04T09:56:17.136Z,101189.38
2023-02-04T09:58:44.036Z,101191.31
2023-02-04T10:01:19.250Z,101192.41
2023-02-04T10:03:48.366Z,101195.22
2023-02-04T10:06:17.840Z,101188.72
2023-02-04T10:08:46.185Z,101192.97
2023-02-04T10:11:14.537Z,101191.19
2023-02-04T10:13:48.556Z,101198.00
2023-02-04T10:16:18.967Z,101201.38
2023-02-04T10:18:45.756Z,101203.41
2023-02-04T10:21:18.307Z,101189.56
2023-02-04T10:23:48.968Z,101190.50
2023-02-04T10:26:16.705Z,101194.22
2023-02-04T10:28:44.097Z,101190.22
2023-02-04T10:31:31.045Z,101177.03
2023-02-04T10:34:04.971Z,101181.13
2023-02-04T10:36:31.609Z,101176.56
2023-02-04T10:39:03.891Z,101183.69
2023-02-04T10:41:30.406Z,101176.56
2023-02-04T10:44:10.395Z,101183.81
2023-02-04T10:46:38.033Z,101189.28
2023-02-04T10:49:05.731Z,101195.72
2023-02-04T10:51:33.137Z,101199.09
2023-02-04T10:54:18.825Z,101200.47
2023-02-04T10:56:45.575Z,101200.28
2023-02-04T10:59:26.930Z,101196.97
2023-02-04T11:01:56.691Z,101199.81
2023-02-04T11:04:24.182Z,101201.28
2023-02-04T11:06:52.659Z,101194.84
2023-02-04T11:09:19.725Z,101202.94
2023-02-04T11:11:48.427Z,101200.28
2023-02-04T11:14:28.213Z,101197.41
2023-02-04T11:17:00.260Z,101185.31
2023-02-04T11:19:37.149Z,101186.34
2023-02-04T11:22:24.039Z,101180.38
2023-02-04T11:24:51.968Z,101177.56
2023-02-04T11:27:37.153Z,101183.41
2023-02-04T11:30:23.233Z,101185.69
2023-02-04T11:33:02.096Z,101172.50
2023-02-04T11:35:30.239Z,101173.97
2023-02-04T11:37:58.595Z,101176.41
2023-02-04T11:40:26.972Z,101175.69
2023-02-04T11:43:02.560Z,101177.38
2023-02-04T11:45:31.224Z,101177.44
2023-02-04T11:48:02.153Z,101180.91
2023-02-04T11:50:32.343Z,101182.09
2023-02-04T11:53:01.724Z,101184.97
2023-02-04T11:55:30.863Z,101183.09
2023-02-04T11:57:58.190Z,101178.97
2023-02-04T12:00:30.315Z,101181.22
2023-02-04T12:03:06.358Z,101183.25
2023-02-04T12:05:54.759Z,101177.91
2023-02-04T12:08:24.071Z,101194.97
2023-02-04T12:11:02.817Z,101182.97
2023-02-04T12:13:30.955Z,101188.72
2023-02-04T12:16:06.020Z,101188.53
2023-02-04T12:18:34.680Z,101188.34
2023-02-04T12:21:02.663Z,101191.41
2023-02-04T12:23:30.148Z,101184.41
2023-02-04T12:25:57.246Z,101184.81
2023-02-04T12:28:24.131Z,101189.44
2023-02-04T12:30:50.773Z,101180.06
2023-02-04T12:33:17.599Z,101175.84
2023-02-04T12:35:44.029Z,101171.63
2023-02-04T12:38:10.707Z,101184.84
2023-02-04T12:40:37.950Z,101186.59
2023-02-04T12:43:04.553Z,101191.47
2023-02-04T12:45:31.552Z,101186.13
2023-02-04T12:47:58.470Z,101180.53
2023-02-04T12:50:26.033Z,101192.69
2023-02-04T12:52:54.314Z,101187.47
2023-02-04T12:55:22.399Z,101185.91
2023-02-04T12:57:49.503Z,101188.91
2023-02-04T13:00:18.041Z,101188.22
2023-02-04T13:02:44.833Z,101190.34
2023-02-04T13:05:12.468Z,101191.44
2023-02-04T13:07:40.670Z,101183.66
2023-02-04T13:10:09.343Z,101183.13
2023-02-04T13:12:35.880Z,101173.50
2023-02-04T13:15:02.410Z,101184.03
2023-02-04T13:17:29.159Z,101187.13
2023-02-04T13:19:55.524Z,101189.63
2023-02-04T13:22:22.049Z,101188.88
2023-02-04T13:24:48.560Z,101182.47
2023-02-04T13:27:15.335Z,101186.56
2023-02-04T13:29:42.233Z,101186.97
2023-02-04T13:32:09.493Z,101190.88
2023-02-04T13:34:36.250Z,101183.00
2023-02-04T13:37:02.676Z,101185.75
2023-02-04T13:39:30.005Z,101191.84
2023-02-04T13:41:56.392Z,101192.53
2023-02-04T13:44:22.940Z,101187.88
2023-02-04T13:46:49.593Z,101189.41
2023-02-04T13:49:16.032Z,101184.53
2023-02-04T13:51:42.542Z,101194.53
2023-02-04T13:54:09.119Z,101183.50
2023-02-04T13:56:36.500Z,101188.53
2023-02-04T13:59:04.266Z,101184.06
2023-02-04T14:01:31.606Z,101181.13
2023-02-04T14:03:58.137Z,101182.16
2023-02-04T14:06:33.070Z,101177.84
2023-02-04T14:09:00.751Z,101170.66
2023-02-04T14:11:31.272Z,101179.31
2023-02-04T14:13:57.783Z,101177.22
2023-02-04T14:16:24.340Z,101172.50
2023-02-04T14:18:50.793Z,101173.44
2023-02-04T14:21:17.520Z,101177.50
2023-02-04T14:23:43.995Z,101172.66
2023-02-04T14:26:10.604Z,101179.72
2023-02-04T14:28:37.011Z,101168.16
2023-02-04T14:31:03.523Z,101174.03
2023-02-04T14:33:30.266Z,101178.84
2023-02-04T14:35:57.011Z,101184.19
2023-02-04T14:38:23.500Z,101185.81
2023-02-04T14:40:50.045Z,101188.41
2023-02-04T14:43:16.664Z,101189.19
2023-02-04T14:45:43.090Z,101197.06
2023-02-04T14:48:09.659Z,101186.13
2023-02-04T14:50:36.205Z,101193.00
2023-02-04T14:53:03.124Z,101188.09
2023-02-04T14:55:29.552Z,101187.22
2023-02-04T14:57:56.145Z,101200.56
2023-02-04T15:00:22.642Z,101195.41
2023-02-04T15:02:49.077Z,101193.81
2023-02-04T15:05:15.591Z,101189.56
2023-02-04T15:07:42.111Z,101202.63
2023-02-04T15:10:09.935Z,101207.66
2023-02-04T15:12:37.536Z,101210.81
2023-02-04T15:15:05.535Z,101216.25
2023-02-04T15:17:32.008Z,101211.94
2023-02-04T15:19:58.629Z,101219.53
2023-02-04T15:22:25.058Z,101207.84
2023-02-04T15:24:51.605Z,101213.34
2023-02-04T15:27:18.011Z,101216.31
2023-02-04T15:29:44.471Z,101220.81
2023-02-04T15:32:10.873Z,101220.03
2023-02-04T15:34:38.150Z,101228.19
2023-02-04T15:37:04.900Z,101224.09
2023-02-04T15:39:31.573Z,101238.38
2023-02-04T15:41:58.000Z,101231.34
2023-02-04T15:44:26.543Z,101221.81
2023-02-04T15:46:54.160Z,101234.22
2023-02-04T15:49:21.140Z,101233.44
2023-02-04T15:51:47.634Z,101227.31
2023-02-04T15:54:14.660Z,101237.25
2023-02-04T15:56:41.882Z,101242.94
2023-02-04T15:59:08.867Z,101244.97
2023-02-04T16:01:35.488Z,101249.72
2023-02-04T16:04:02.042Z,101249.09
2023-02-04T16:06:28.535Z,101253.22
2023-02-04T16:08:54.945Z,101252.78
2023-02-04T16:11:21.518Z,101242.56
2023-02-04T16:13:47.888Z,101245.09
2023-02-04T16:16:14.374Z,101248.31
2023-02-04T16:18:41.555Z,101256.41
2023-02-04T16:21:07.975Z,101256.78
2023-02-04T16:23:34.473Z,101248.44
2023-02-04T16:26:00.866Z,101256.69
2023-02-04T16:28:27.218Z,101255.56
2023-02-04T16:30:53.864Z,101257.69
2023-02-04T16:33:20.318Z,101261.63
2023-02-04T16:36:01.949Z,101257.56
2023-02-04T16:38:29.506Z,101267.41
2023-02-04T16:40:56.601Z,101260.72
2023-02-04T16:43:23.846Z,101266.41
2023-02-04T16:45:50.801Z,101272.19
2023-02-04T16:48:17.684Z,101266.31
2023-02-04T16:50:44.164Z,101266.88
2023-02-04T16:53:15.005Z,101272.44
2023-02-04T16:55:45.891Z,101272.81
2023-02-04T16:58:15.003Z,101273.16
2023-02-04T17:00:44.373Z,101281.47
2023-02-04T17:03:12.568Z,101284.50
2023-02-04T17:05:39.662Z,101291.94
2023-02-04T17:08:07.267Z,101298.19
2023-02-04T17:10:53.241Z,101300.97
2023-02-04T17:13:20.570Z,101307.72
2023-02-04T17:15:47.203Z,101315.34
2023-02-04T17:18:13.584Z,101306.84
2023-02-04T17:20:40.938Z,101311.31
2023-02-04T17:23:07.599Z,101317.69
2023-02-04T17:25:34.571Z,101327.78
2023-02-04T17:28:01.373Z,101326.31
2023-02-04T17:30:28.569Z,101320.13
2023-02-04T17:32:54.989Z,101323.81
2023-02-04T17:35:21.544Z,101317.50
2023-02-04T17:37:47.952Z,101317.75
2023-02-04T17:40:14.664Z,101312.72
2023-02-04T17:42:41.493Z,101316.31
2023-02-04T17:45:10.628Z,101315.72
2023-02-04T17:47:38.786Z,101319.31
2023-02-04T17:50:09.766Z,101321.16
2023-02-04T17:52:37.707Z,101329.31
2023-02-04T17:55:15.293Z,101328.59
2023-02-04T17:57:41.714Z,101317.34
2023-02-04T18:00:17.010Z,101320.09
2023-02-04T18:02:46.116Z,101320.25
2023-02-04T18:05:19.125Z,101324.06
2023-02-04T18:08:12.829Z,101327.13
2023-02-04T18:10:42.789Z,101324.66
2023-02-04T18:13:24.224Z,101338.03
2023-02-04T18:15:56.137Z,101338.13
2023-02-04T18:18:35.844Z,101328.53
2023-02-04T18:21:26.979Z,101327.81
2023-02-04T18:24:11.431Z,101339.44
2023-02-04T18:26:44.195Z,101333.38
2023-02-04T18:29:27.866Z,101339.66
2023-02-04T18:32:22.266Z,101346.00
2023-02-04T18:34:54.764Z,101339.94
2023-02-04T18:37:33.056Z,101338.28
2023-02-04T18:40:08.467Z,101332.19
2023-02-04T18:42:38.594Z,101342.09
2023-02-04T18:45:26.379Z,101328.16
2023-02-04T18:47:58.378Z,101334.47
2023-02-04T18:50:33.781Z,101339.03
2023-02-04T18:53:01.607Z,101337.44
2023-02-04T18:55:37.530Z,101330.72
2023-02-04T18:58:32.072Z,101336.19
2023-02-04T19:01:01.606Z,101335.41
2023-02-04T19:03:31.084Z,101331.75
2023-02-04T19:06:00.949Z,101331.78
2023-02-04T19:08:45.869Z,101323.94
2023-02-04T19:11:35.379Z,101329.25
2023-02-04T19:14:03.086Z,101329.25
2023-02-04T19:16:36.754Z,101324.91
2023-02-04T19:19:29.191Z,101325.69
2023-02-04T19:21:55.926Z,101322.19
2023-02-04T19:24:26.642Z,101325.88
2023-02-04T19:27:01.755Z,101331.22
2023-02-04T19:29:34.307Z,101341.00
2023-02-04T19:32:18.684Z,101348.19
2023-02-04T19:34:45.095Z,101349.03
2023-02-04T19:37:23.140Z,101353.28
2023-02-04T19:39:50.810Z,101356.69
2023-02-04T19:42:36.950Z,101346.88
2023-02-04T19:45:21.902Z,101345.97
2023-02-04T19:47:50.638Z,101351.31
2023-02-04T19:50:27.459Z,101349.47
2023-02-04T19:52:57.040Z,101352.94
2023-02-04T19:55:28.107Z,101354.63
2023-02-04T19:57:59.169Z,101353.56
2023-02-04T20:00:35.215Z,101359.72
2023-02-04T20:03:33.142Z,101361.50
2023-02-04T20:06:14.090Z,101362.47
2023-02-04T20:09:01.365Z,101360.69
2023-02-04T20:11:41.729Z,101358.84
2023-02-04T20:14:14.112Z,101358.66
2023-02-04T20:16:46.644Z,101353.22
2023-02-04T20:19:35.542Z,101348.75
2023-02-04T20:22:17.218Z,101349.44
2023-02-04T20:24:46.730Z,101359.16
2023-02-04T20:27:36.112Z,101361.75
2023-02-04T20:30:09.313Z,101357.25
2023-02-04T20:32:47.148Z,101360.63
2023-02-04T20:35:13.615Z,101365.72
2023-02-04T20:37:42.272Z,101370.97
2023-02-04T20:40:23.395Z,101374.53
2023-02-04T20:42:59.768Z,101363.94
2023-02-04T20:45:32.735Z,101377.00
2023-02-04T20:48:18.052Z,101373.47
2023-02-04T20:50:46.393Z,101369.03
2023-02-04T20:53:20.436Z,101369.78
2023-02-04T20:55:53.131Z,101364.44
2023-02-04T20:58:33.109Z,101375.72
2023-02-04T21:00:59.498Z,101372.94
2023-02-04T21:03:30.237Z,101377.19
2023-02-04T21:05:58.753Z,101369.97
2023-02-04T21:08:27.928Z,101369.91
2023-02-04T21:10:54.698Z,101371.50
2023-02-04T21:13:21.212Z,101361.75
2023-02-04T21:15:47.869Z,101358.09
2023-02-04T21:18:14.436Z,101359.78
2023-02-04T21:20:40.836Z,101358.66
2023-02-04T21:23:07.844Z,101357.75
2023-02-04T21:25:34.658Z,101356.00
2023-02-04T21:28:01.365Z,101350.66
2023-02-04T21:30:30.263Z,101349.72
2023-02-04T21:32:57.951Z,101356.69
2023-02-04T21:35:24.625Z,101354.72
2023-02-04T21:37:52.009Z,101365.41
2023-02-04T21:40:21.824Z,101370.84
2023-02-04T21:42:49.379Z,101367.19
2023-02-04T21:45:19.931Z,101368.03
2023-02-04T21:47:47.625Z,101375.88
2023-02-04T21:50:16.150Z,101360.56
2023-02-04T21:52:42.973Z,101359.53
2023-02-04T21:55:10.979Z,101367.34
2023-02-04T21:57:37.973Z,101350.44
2023-02-04T22:00:06.814Z,101360.97
2023-02-04T22:02:33.714Z,101357.34
2023-02-04T22:05:00.615Z,101351.06
2023-02-04T22:07:27.214Z,101358.13
2023-02-04T22:09:53.591Z,101370.38
2023-02-04T22:12:20.241Z,101362.41
2023-02-04T22:15:05.507Z,101366.13
2023-02-04T22:17:32.521Z,101367.94
2023-02-04T22:19:59.199Z,101361.69
2023-02-04T22:22:25.679Z,101370.47
2023-02-04T22:24:52.311Z,101378.34
2023-02-04T22:27:19.025Z,101369.50
2023-02-04T22:29:45.632Z,101368.47
2023-02-04T22:32:12.003Z,101355.13
2023-02-04T22:34:38.418Z,101352.44
2023-02-04T22:37:05.029Z,101354.00
2023-02-04T22:39:31.474Z,101355.44
2023-02-04T22:41:58.120Z,101355.94
2023-02-04T22:44:24.869Z,101360.50
2023-02-04T22:46:51.576Z,101356.22
2023-02-04T22:49:17.999Z,101360.69
2023-02-04T22:51:44.515Z,101355.47
2023-02-04T22:54:11.307Z,101359.88
2023-02-04T22:56:37.850Z,101354.56
2023-02-04T22:59:04.237Z,101352.66
2023-02-04T23:01:30.628Z,101346.31
2023-02-04T23:03:57.059Z,101350.72
2023-02-04T23:06:23.770Z,101346.31
2023-02-04T23:08:50.259Z,101352.47
2023-02-04T23:11:18.453Z,101348.91
2023-02-04T23:13:46.208Z,101345.41
2023-02-04T23:16:12.731Z,101340.19
2023-02-04T23:18:39.178Z,101342.91
2023-02-04T23:21:06.068Z,101336.69
2023-02-04T23:23:33.134Z,101330.28
2023-02-04T23:26:03.257Z,101331.78
2023-02-04T23:28:31.099Z,101335.28
2023-02-04T23:30:58.086Z,101336.09
2023-02-04T23:33:25.008Z,101344.00
2023-02-04T23:35:51.782Z,101356.31
2023-02-04T23:38:18.486Z,101366.78
2023-02-04T23:40:44.973Z,101377.31
2023-02-04T23:43:11.683Z,101367.53
2023-02-04T23:45:38.239Z,101371.56
2023-02-04T23:48:05.489Z,101372.59
2023-02-04T23:50:31.926Z,101370.81
2023-02-04T23:52:58.403Z,101377.28
2023-02-04T23:55:25.121Z,101363.97
2023-02-04T23:57:51.807Z,101360.47
